sensor_id;sensor_type;location;lat;lon;timestamp;pressure;altitude;pressure_sealevel;temperature;humidity
38400;BME280;24180;42.676;23.320;2023-04-27T00:01:36;94434.75;;;7.67;100.00
38400;BME280;24180;42.676;23.320;2023-04-27T00:04:02;94441.94;;;7.64;100.00
38400;BME280;24180;42.676;23.320;2023-04-27T00:06:29;94456.34;;;7.66;100.00
38400;BME280;24180;42.676;23.320;2023-04-27T00:08:54;94475.06;;;7.78;100.00
38400;BME280;24180;42.676;23.320;2023-04-27T00:11:20;94467.03;;;7.71;100.00
38400;BME280;24180;42.676;23.320;2023-04-27T00:13:45;94473.72;;;7.74;100.00
38400;BME280;24180;42.676;23.320;2023-04-27T00:16:11;94451.81;;;7.49;100.00
38400;BME280;24180;42.676;23.320;2023-04-27T00:18:36;94480.31;;;7.57;100.00
38400;BME280;24180;42.676;23.320;2023-04-27T00:21:02;94458.91;;;7.26;100.00
38400;BME280;24180;42.676;23.320;2023-04-27T00:23:27;94464.06;;;7.26;100.00
38400;BME280;24180;42.676;23.320;2023-04-27T00:25:53;94475.88;;;7.29;100.00
38400;BME280;24180;42.676;23.320;2023-04-27T00:28:18;94470.31;;;7.24;100.00
38400;BME280;24180;42.676;23.320;2023-04-27T00:30:44;94476.44;;;7.32;100.00
38400;BME280;24180;42.676;23.320;2023-04-27T00:33:10;94477.66;;;7.28;100.00
38400;BME280;24180;42.676;23.320;2023-04-27T00:35:36;94480.22;;;7.28;100.00
38400;BME280;24180;42.676;23.320;2023-04-27T00:38:01;94466.19;;;7.02;100.00
38400;BME280;24180;42.676;23.320;2023-04-27T00:40:27;94449.97;;;6.90;100.00
38400;BME280;24180;42.676;23.320;2023-04-27T00:42:52;94478.50;;;7.08;100.00
38400;BME280;24180;42.676;23.320;2023-04-27T00:45:17;94487.19;;;7.07;100.00
38400;BME280;24180;42.676;23.320;2023-04-27T00:47:43;94491.31;;;6.98;100.00
38400;BME280;24180;42.676;23.320;2023-04-27T00:50:09;94476.34;;;6.83;100.00
38400;BME280;24180;42.676;23.320;2023-04-27T00:52:36;94488.41;;;6.82;100.00
38400;BME280;24180;42.676;23.320;2023-04-27T00:55:03;94494.25;;;6.84;100.00
38400;BME280;24180;42.676;23.320;2023-04-27T00:57:29;94492.75;;;6.82;100.00
38400;BME280;24180;42.676;23.320;2023-04-27T00:59:55;94473.31;;;6.68;100.00
38400;BME280;24180;42.676;23.320;2023-04-27T01:02:20;94471.03;;;6.54;100.00
38400;BME280;24180;42.676;23.320;2023-04-27T01:04:47;94491.56;;;6.65;100.00
38400;BME280;24180;42.676;23.320;2023-04-27T01:07:15;94465.16;;;6.42;100.00
38400;BME280;24180;42.676;23.320;2023-04-27T01:09:40;94475.78;;;6.49;100.00
38400;BME280;24180;42.676;23.320;2023-04-27T01:12:06;94474.50;;;6.43;100.00
38400;BME280;24180;42.676;23.320;2023-04-27T01:14:31;94501.53;;;6.58;100.00
38400;BME280;24180;42.676;23.320;2023-04-27T01:16:57;94487.81;;;6.48;100.00
38400;BME280;24180;42.676;23.320;2023-04-27T01:19:22;94491.47;;;6.46;100.00
38400;BME280;24180;42.676;23.320;2023-04-27T01:21:48;94498.91;;;6.49;100.00
38400;BME280;24180;42.676;23.320;2023-04-27T01:24:13;94477.75;;;6.25;100.00
38400;BME280;24180;42.676;23.320;2023-04-27T01:26:39;94509.56;;;6.44;100.00
38400;BME280;24180;42.676;23.320;2023-04-27T01:29:04;94481.28;;;6.24;100.00
38400;BME280;24180;42.676;23.320;2023-04-27T01:31:30;94484.53;;;6.26;100.00
38400;BME280;24180;42.676;23.320;2023-04-27T01:33:56;94513.78;;;6.45;100.00
38400;BME280;24180;42.676;23.320;2023-04-27T01:36:21;94490.53;;;6.15;100.00
38400;BME280;24180;42.676;23.320;2023-04-27T01:38:46;94495.81;;;6.14;100.00
38400;BME280;24180;42.676;23.320;2023-04-27T01:41:12;94497.00;;;6.30;100.00
38400;BME280;24180;42.676;23.320;2023-04-27T01:43:37;94496.59;;;6.25;100.00
38400;BME280;24180;42.676;23.320;2023-04-27T01:46:07;94518.38;;;6.42;100.00
38400;BME280;24180;42.676;23.320;2023-04-27T01:48:34;94523.88;;;6.37;100.00
38400;BME280;24180;42.676;23.320;2023-04-27T01:51:00;94487.59;;;6.20;100.00
38400;BME280;24180;42.676;23.320;2023-04-27T01:53:26;94510.63;;;6.21;100.00
38400;BME280;24180;42.676;23.320;2023-04-27T01:55:52;94494.63;;;6.18;100.00
38400;BME280;24180;42.676;23.320;2023-04-27T01:58:17;94522.81;;;6.40;100.00
38400;BME280;24180;42.676;23.320;2023-04-27T02:00:43;94522.25;;;6.36;100.00
38400;BME280;24180;42.676;23.320;2023-04-27T02:03:08;94515.97;;;6.29;100.00
38400;BME280;24180;42.676;23.320;2023-04-27T02:05:33;94462.00;;;5.97;100.00
38400;BME280;24180;42.676;23.320;2023-04-27T02:07:59;94511.31;;;6.23;100.00
38400;BME280;24180;42.676;23.320;2023-04-27T02:10:24;94498.38;;;6.14;100.00
38400;BME280;24180;42.676;23.320;2023-04-27T02:12:50;94501.28;;;6.20;100.00
38400;BME280;24180;42.676;23.320;2023-04-27T02:15:15;94519.34;;;6.30;100.00
38400;BME280;24180;42.676;23.320;2023-04-27T02:17:41;94519.63;;;6.16;100.00
38400;BME280;24180;42.676;23.320;2023-04-27T02:20:08;94484.31;;;5.97;100.00
38400;BME280;24180;42.676;23.320;2023-04-27T02:22:35;94523.47;;;6.21;100.00
38400;BME280;24180;42.676;23.320;2023-04-27T02:25:01;94500.34;;;6.10;100.00
38400;BME280;24180;42.676;23.320;2023-04-27T02:27:26;94501.19;;;6.10;100.00
38400;BME280;24180;42.676;23.320;2023-04-27T02:29:52;94497.94;;;6.08;100.00
38400;BME280;24180;42.676;23.320;2023-04-27T02:32:17;94501.31;;;6.09;100.00
38400;BME280;24180;42.676;23.320;2023-04-27T02:34:43;94496.19;;;6.09;100.00
38400;BME280;24180;42.676;23.320;2023-04-27T02:37:08;94500.72;;;6.17;100.00
38400;BME280;24180;42.676;23.320;2023-04-27T02:39:34;94499.78;;;6.18;100.00
38400;BME280;24180;42.676;23.320;2023-04-27T02:41:59;94522.84;;;6.29;100.00
38400;BME280;24180;42.676;23.320;2023-04-27T02:44:25;94522.41;;;6.24;100.00
38400;BME280;24180;42.676;23.320;2023-04-27T02:46:51;94532.06;;;6.31;100.00
38400;BME280;24180;42.676;23.320;2023-04-27T02:49:16;94500.00;;;6.15;100.00
38400;BME280;24180;42.676;23.320;2023-04-27T02:51:42;94529.50;;;6.31;100.00
38400;BME280;24180;42.676;23.320;2023-04-27T02:54:08;94509.91;;;6.19;100.00
38400;BME280;24180;42.676;23.320;2023-04-27T02:56:33;94497.31;;;6.16;100.00
38400;BME280;24180;42.676;23.320;2023-04-27T02:58:59;94529.13;;;6.36;100.00
38400;BME280;24180;42.676;23.320;2023-04-27T03:01:24;94538.13;;;6.41;100.00
38400;BME280;24180;42.676;23.320;2023-04-27T03:03:50;94508.28;;;6.18;100.00
38400;BME280;24180;42.676;23.320;2023-04-27T03:06:15;94523.78;;;6.28;100.00
38400;BME280;24180;42.676;23.320;2023-04-27T03:08:41;94509.81;;;6.21;100.00
38400;BME280;24180;42.676;23.320;2023-04-27T03:11:06;94550.72;;;6.44;100.00
38400;BME280;24180;42.676;23.320;2023-04-27T03:13:33;94517.38;;;6.22;100.00
38400;BME280;24180;42.676;23.320;2023-04-27T03:16:07;94556.75;;;6.34;100.00
38400;BME280;24180;42.676;23.320;2023-04-27T03:18:33;94516.38;;;6.14;100.00
38400;BME280;24180;42.676;23.320;2023-04-27T03:21:09;94525.84;;;6.13;100.00
38400;BME280;24180;42.676;23.320;2023-04-27T03:23:35;94529.81;;;6.17;100.00
38400;BME280;24180;42.676;23.320;2023-04-27T03:26:13;94563.44;;;6.25;100.00
38400;BME280;24180;42.676;23.320;2023-04-27T03:28:39;94560.59;;;6.28;100.00
38400;BME280;24180;42.676;23.320;2023-04-27T03:31:11;94559.47;;;6.21;100.00
38400;BME280;24180;42.676;23.320;2023-04-27T03:33:37;94543.63;;;6.05;100.00
38400;BME280;24180;42.676;23.320;2023-04-27T03:36:03;94564.25;;;6.15;100.00
38400;BME280;24180;42.676;23.320;2023-04-27T03:38:30;94569.97;;;6.18;100.00
38400;BME280;24180;42.676;23.320;2023-04-27T03:40:55;94568.84;;;6.11;100.00
38400;BME280;24180;42.676;23.320;2023-04-27T03:43:22;94561.00;;;6.13;100.00
38400;BME280;24180;42.676;23.320;2023-04-27T03:45:47;94545.16;;;5.85;100.00
38400;BME280;24180;42.676;23.320;2023-04-27T03:48:14;94573.06;;;6.01;100.00
38400;BME280;24180;42.676;23.320;2023-04-27T03:50:40;94563.00;;;5.98;100.00
38400;BME280;24180;42.676;23.320;2023-04-27T03:53:05;94581.59;;;6.01;100.00
38400;BME280;24180;42.676;23.320;2023-04-27T03:55:31;94551.03;;;5.87;100.00
38400;BME280;24180;42.676;23.320;2023-04-27T03:57:56;94588.34;;;6.14;100.00
38400;BME280;24180;42.676;23.320;2023-04-27T04:00:22;94592.78;;;6.11;100.00
38400;BME280;24180;42.676;23.320;2023-04-27T04:02:47;94601.69;;;6.07;100.00
38400;BME280;24180;42.676;23.320;2023-04-27T04:05:13;94558.72;;;5.76;100.00
38400;BME280;24180;42.676;23.320;2023-04-27T04:07:41;94593.84;;;5.98;100.00
38400;BME280;24180;42.676;23.320;2023-04-27T04:10:08;94599.25;;;5.95;100.00
38400;BME280;24180;42.676;23.320;2023-04-27T04:12:33;94589.63;;;5.86;100.00
38400;BME280;24180;42.676;23.320;2023-04-27T04:14:59;94600.78;;;5.86;100.00
38400;BME280;24180;42.676;23.320;2023-04-27T04:17:24;94610.44;;;5.83;100.00
38400;BME280;24180;42.676;23.320;2023-04-27T04:19:49;94580.34;;;5.62;100.00
38400;BME280;24180;42.676;23.320;2023-04-27T04:22:15;94593.41;;;5.59;100.00
38400;BME280;24180;42.676;23.320;2023-04-27T04:24:40;94616.31;;;5.74;100.00
38400;BME280;24180;42.676;23.320;2023-04-27T04:27:06;94599.38;;;5.60;100.00
38400;BME280;24180;42.676;23.320;2023-04-27T04:29:31;94625.03;;;5.82;100.00
38400;BME280;24180;42.676;23.320;2023-04-27T04:31:57;94627.88;;;5.90;100.00
38400;BME280;24180;42.676;23.320;2023-04-27T04:34:22;94608.84;;;5.82;100.00
38400;BME280;24180;42.676;23.320;2023-04-27T04:36:48;94636.88;;;5.96;100.00
38400;BME280;24180;42.676;23.320;2023-04-27T04:39:17;94639.22;;;5.88;100.00
38400;BME280;24180;42.676;23.320;2023-04-27T04:41:46;94634.28;;;5.85;100.00
38400;BME280;24180;42.676;23.320;2023-04-27T04:44:13;94593.44;;;5.48;100.00
38400;BME280;24180;42.676;23.320;2023-04-27T04:46:40;94639.66;;;5.82;100.00
38400;BME280;24180;42.676;23.320;2023-04-27T04:49:05;94620.72;;;5.72;100.00
38400;BME280;24180;42.676;23.320;2023-04-27T04:51:31;94628.94;;;5.88;100.00
38400;BME280;24180;42.676;23.320;2023-04-27T04:53:57;94624.47;;;5.79;100.00
38400;BME280;24180;42.676;23.320;2023-04-27T04:56:22;94645.38;;;5.85;100.00
38400;BME280;24180;42.676;23.320;2023-04-27T04:58:48;94642.09;;;5.83;100.00
38400;BME280;24180;42.676;23.320;2023-04-27T05:01:13;94651.31;;;5.86;100.00
38400;BME280;24180;42.676;23.320;2023-04-27T05:03:38;94659.75;;;5.99;100.00
38400;BME280;24180;42.676;23.320;2023-04-27T05:06:04;94633.69;;;5.81;100.00
38400;BME280;24180;42.676;23.320;2023-04-27T05:08:30;94639.66;;;5.82;100.00
38400;BME280;24180;42.676;23.320;2023-04-27T05:10:55;94640.13;;;5.87;100.00
38400;BME280;24180;42.676;23.320;2023-04-27T05:13:21;94666.28;;;6.03;100.00
38400;BME280;24180;42.676;23.320;2023-04-27T05:15:48;94665.09;;;6.18;100.00
38400;BME280;24180;42.676;23.320;2023-04-27T05:18:14;94647.34;;;6.15;100.00
38400;BME280;24180;42.676;23.320;2023-04-27T05:20:39;94677.81;;;6.31;100.00
38400;BME280;24180;42.676;23.320;2023-04-27T05:23:05;94681.94;;;6.33;100.00
38400;BME280;24180;42.676;23.320;2023-04-27T05:25:31;94649.22;;;6.13;100.00
38400;BME280;24180;42.676;23.320;2023-04-27T05:27:56;94653.41;;;6.25;100.00
38400;BME280;24180;42.676;23.320;2023-04-27T05:30:22;94645.25;;;6.20;100.00
38400;BME280;24180;42.676;23.320;2023-04-27T05:32:47;94682.25;;;6.40;100.00
38400;BME280;24180;42.676;23.320;2023-04-27T05:35:13;94680.22;;;6.54;100.00
38400;BME280;24180;42.676;23.320;2023-04-27T05:37:38;94660.25;;;6.47;100.00
38400;BME280;24180;42.676;23.320;2023-04-27T05:40:04;94672.91;;;6.82;100.00
38400;BME280;24180;42.676;23.320;2023-04-27T05:42:31;94687.78;;;6.67;100.00
38400;BME280;24180;42.676;23.320;2023-04-27T05:44:57;94689.97;;;6.83;100.00
38400;BME280;24180;42.676;23.320;2023-04-27T05:47:22;94678.53;;;6.76;100.00
38400;BME280;24180;42.676;23.320;2023-04-27T05:49:51;94661.69;;;6.72;100.00
38400;BME280;24180;42.676;23.320;2023-04-27T05:52:17;94689.53;;;7.10;100.00
38400;BME280;24180;42.676;23.320;2023-04-27T05:54:49;94671.72;;;6.86;100.00
38400;BME280;24180;42.676;23.320;2023-04-27T05:57:15;94662.59;;;6.82;100.00
38400;BME280;24180;42.676;23.320;2023-04-27T05:59:41;94688.88;;;6.96;100.00
38400;BME280;24180;42.676;23.320;2023-04-27T06:02:07;94686.22;;;7.07;100.00
38400;BME280;24180;42.676;23.320;2023-04-27T06:07:17;94680.16;;;7.09;100.00
38400;BME280;24180;42.676;23.320;2023-04-27T06:09:42;94660.75;;;7.04;100.00
38400;BME280;24180;42.676;23.320;2023-04-27T06:12:08;94675.06;;;7.18;100.00
38400;BME280;24180;42.676;23.320;2023-04-27T06:14:35;94691.84;;;7.54;100.00
38400;BME280;24180;42.676;23.320;2023-04-27T06:17:01;94676.13;;;7.57;100.00
38400;BME280;24180;42.676;23.320;2023-04-27T06:19:27;94681.94;;;7.80;100.00
38400;BME280;24180;42.676;23.320;2023-04-27T06:21:53;94682.81;;;7.90;100.00
38400;BME280;24180;42.676;23.320;2023-04-27T06:24:19;94659.94;;;7.76;100.00
38400;BME280;24180;42.676;23.320;2023-04-27T06:26:45;94683.38;;;8.03;100.00
38400;BME280;24180;42.676;23.320;2023-04-27T06:29:11;94679.19;;;8.02;100.00
38400;BME280;24180;42.676;23.320;2023-04-27T06:31:36;94660.22;;;7.73;100.00
38400;BME280;24180;42.676;23.320;2023-04-27T06:34:01;94679.81;;;7.85;100.00
38400;BME280;24180;42.676;23.320;2023-04-27T06:36:28;94640.88;;;7.58;100.00
38400;BME280;24180;42.676;23.320;2023-04-27T06:38:54;94651.78;;;7.71;100.00
38400;BME280;24180;42.676;23.320;2023-04-27T06:41:24;94676.91;;;8.09;99.60
38400;BME280;24180;42.676;23.320;2023-04-27T06:43:51;94688.16;;;8.08;98.08
38400;BME280;24180;42.676;23.320;2023-04-27T06:46:16;94678.72;;;8.18;95.44
38400;BME280;24180;42.676;23.320;2023-04-27T06:48:42;94675.75;;;8.22;95.31
38400;BME280;24180;42.676;23.320;2023-04-27T06:51:07;94666.81;;;8.26;94.22
38400;BME280;24180;42.676;23.320;2023-04-27T06:53:33;94667.56;;;8.57;93.54
38400;BME280;24180;42.676;23.320;2023-04-27T06:55:58;94644.34;;;8.67;92.95
38400;BME280;24180;42.676;23.320;2023-04-27T06:58:24;94669.25;;;9.06;89.90
38400;BME280;24180;42.676;23.320;2023-04-27T07:00:49;94638.09;;;8.79;87.73
38400;BME280;24180;42.676;23.320;2023-04-27T07:03:15;94641.50;;;8.70;87.06
38400;BME280;24180;42.676;23.320;2023-04-27T07:05:41;94652.06;;;8.67;89.11
38400;BME280;24180;42.676;23.320;2023-04-27T07:08:06;94658.75;;;8.88;90.06
38400;BME280;24180;42.676;23.320;2023-04-27T07:10:32;94661.75;;;9.22;90.25
38400;BME280;24180;42.676;23.320;2023-04-27T07:12:58;94668.66;;;9.51;88.22
38400;BME280;24180;42.676;23.320;2023-04-27T07:15:23;94619.19;;;9.07;81.24
38400;BME280;24180;42.676;23.320;2023-04-27T07:17:52;94663.22;;;9.15;83.77
38400;BME280;24180;42.676;23.320;2023-04-27T07:20:20;94640.13;;;9.04;83.61
38400;BME280;24180;42.676;23.320;2023-04-27T07:22:45;94613.63;;;8.92;84.13
38400;BME280;24180;42.676;23.320;2023-04-27T07:25:11;94660.22;;;9.39;86.85
38400;BME280;24180;42.676;23.320;2023-04-27T07:27:36;94661.28;;;9.56;83.54
38400;BME280;24180;42.676;23.320;2023-04-27T07:30:03;94642.53;;;9.44;77.81
38400;BME280;24180;42.676;23.320;2023-04-27T07:32:30;94647.75;;;9.06;75.72
38400;BME280;24180;42.676;23.320;2023-04-27T07:34:55;94640.69;;;8.98;77.38
38400;BME280;24180;42.676;23.320;2023-04-27T07:37:22;94636.47;;;9.16;78.33
38400;BME280;24180;42.676;23.320;2023-04-27T07:39:49;94649.88;;;9.49;75.73
38400;BME280;24180;42.676;23.320;2023-04-27T07:42:16;94657.50;;;9.50;70.18
38400;BME280;24180;42.676;23.320;2023-04-27T07:44:42;94619.91;;;9.56;71.71
38400;BME280;24180;42.676;23.320;2023-04-27T07:47:08;94651.97;;;9.82;72.92
38400;BME280;24180;42.676;23.320;2023-04-27T07:49:34;94644.41;;;9.61;69.23
38400;BME280;24180;42.676;23.320;2023-04-27T07:51:59;94654.31;;;9.66;68.74
38400;BME280;24180;42.676;23.320;2023-04-27T07:54:25;94640.94;;;9.80;71.18
38400;BME280;24180;42.676;23.320;2023-04-27T07:56:50;94650.63;;;9.78;67.70
38400;BME280;24180;42.676;23.320;2023-04-27T07:59:16;94628.59;;;9.74;67.66
38400;BME280;24180;42.676;23.320;2023-04-27T08:01:41;94638.69;;;9.58;67.58
38400;BME280;24180;42.676;23.320;2023-04-27T08:04:07;94658.16;;;9.62;67.86
38400;BME280;24180;42.676;23.320;2023-04-27T08:06:32;94633.78;;;9.64;69.86
38400;BME280;24180;42.676;23.320;2023-04-27T08:08:58;94650.53;;;9.97;70.46
38400;BME280;24180;42.676;23.320;2023-04-27T08:11:25;94632.53;;;10.05;68.36
38400;BME280;24180;42.676;23.320;2023-04-27T08:13:50;94653.16;;;10.24;68.01
38400;BME280;24180;42.676;23.320;2023-04-27T08:16:16;94628.81;;;10.45;65.21
38400;BME280;24180;42.676;23.320;2023-04-27T08:18:43;94624.72;;;10.87;64.24
38400;BME280;24180;42.676;23.320;2023-04-27T08:21:08;94651.38;;;11.41;61.90
38400;BME280;24180;42.676;23.320;2023-04-27T08:23:34;94655.88;;;11.56;61.40
38400;BME280;24180;42.676;23.320;2023-04-27T08:26:01;94648.22;;;11.29;61.86
38400;BME280;24180;42.676;23.320;2023-04-27T08:28:27;94645.31;;;11.32;62.79
38400;BME280;24180;42.676;23.320;2023-04-27T08:30:52;94651.41;;;11.05;59.69
38400;BME280;24180;42.676;23.320;2023-04-27T08:33:18;94650.63;;;10.87;60.52
38400;BME280;24180;42.676;23.320;2023-04-27T08:35:43;94641.50;;;11.01;60.31
38400;BME280;24180;42.676;23.320;2023-04-27T08:38:09;94650.47;;;11.06;58.89
38400;BME280;24180;42.676;23.320;2023-04-27T08:40:34;94633.34;;;10.96;61.21
38400;BME280;24180;42.676;23.320;2023-04-27T08:43:00;94664.28;;;10.79;62.09
38400;BME280;24180;42.676;23.320;2023-04-27T08:45:26;94643.84;;;10.76;63.61
38400;BME280;24180;42.676;23.320;2023-04-27T08:47:52;94629.59;;;10.90;63.37
38400;BME280;24180;42.676;23.320;2023-04-27T08:50:18;94632.84;;;10.92;64.18
38400;BME280;24180;42.676;23.320;2023-04-27T08:52:47;94651.69;;;11.20;62.92
38400;BME280;24180;42.676;23.320;2023-04-27T08:55:13;94643.16;;;11.27;65.22
38400;BME280;24180;42.676;23.320;2023-04-27T08:57:38;94652.00;;;11.60;62.10
38400;BME280;24180;42.676;23.320;2023-04-27T09:00:05;94631.00;;;11.46;61.04
38400;BME280;24180;42.676;23.320;2023-04-27T09:02:43;94666.78;;;11.42;60.82
38400;BME280;24180;42.676;23.320;2023-04-27T09:05:19;94652.13;;;11.51;59.35
38400;BME280;24180;42.676;23.320;2023-04-27T09:07:59;94604.31;;;11.53;59.37
38400;BME280;24180;42.676;23.320;2023-04-27T09:10:25;94635.50;;;11.87;57.35
38400;BME280;24180;42.676;23.320;2023-04-27T09:12:59;94631.16;;;11.96;57.02
38400;BME280;24180;42.676;23.320;2023-04-27T09:15:26;94645.56;;;11.90;57.67
38400;BME280;24180;42.676;23.320;2023-04-27T09:17:56;94648.56;;;12.03;55.65
38400;BME280;24180;42.676;23.320;2023-04-27T09:20:22;94625.06;;;12.13;56.83
38400;BME280;24180;42.676;23.320;2023-04-27T09:22:50;94626.75;;;12.88;54.78
38400;BME280;24180;42.676;23.320;2023-04-27T09:25:30;94617.81;;;12.75;53.11
38400;BME280;24180;42.676;23.320;2023-04-27T09:27:57;94603.81;;;12.09;54.00
38400;BME280;24180;42.676;23.320;2023-04-27T09:30:24;94605.44;;;11.77;54.66
38400;BME280;24180;42.676;23.320;2023-04-27T09:32:57;94637.13;;;11.88;54.91
38400;BME280;24180;42.676;23.320;2023-04-27T09:35:26;94597.34;;;11.80;55.13
38400;BME280;24180;42.676;23.320;2023-04-27T09:37:52;94615.31;;;11.73;55.58
38400;BME280;24180;42.676;23.320;2023-04-27T09:40:19;94617.06;;;11.98;55.70
38400;BME280;24180;42.676;23.320;2023-04-27T09:42:49;94595.47;;;12.40;54.49
38400;BME280;24180;42.676;23.320;2023-04-27T09:45:16;94609.81;;;12.68;52.77
38400;BME280;24180;42.676;23.320;2023-04-27T09:47:42;94611.47;;;12.85;50.56
38400;BME280;24180;42.676;23.320;2023-04-27T09:50:11;94608.41;;;12.82;49.80
38400;BME280;24180;42.676;23.320;2023-04-27T09:52:37;94596.22;;;12.98;50.71
38400;BME280;24180;42.676;23.320;2023-04-27T09:55:03;94597.34;;;12.96;51.22
38400;BME280;24180;42.676;23.320;2023-04-27T10:00:32;94613.66;;;13.30;49.10
38400;BME280;24180;42.676;23.320;2023-04-27T10:08:03;94613.97;;;13.27;48.40
38400;BME280;24180;42.676;23.320;2023-04-27T10:10:29;94579.38;;;13.19;49.29
38400;BME280;24180;42.676;23.320;2023-04-27T10:13:01;94600.78;;;13.45;48.60
38400;BME280;24180;42.676;23.320;2023-04-27T10:15:27;94580.31;;;13.09;48.81
38400;BME280;24180;42.676;23.320;2023-04-27T10:17:53;94601.22;;;14.36;47.43
38400;BME280;24180;42.676;23.320;2023-04-27T10:20:35;94604.69;;;15.50;44.12
38400;BME280;24180;42.676;23.320;2023-04-27T10:23:00;94602.53;;;14.63;44.34
38400;BME280;24180;42.676;23.320;2023-04-27T10:25:39;94611.53;;;13.42;46.15
38400;BME280;24180;42.676;23.320;2023-04-27T10:28:05;94590.09;;;13.24;46.34
38400;BME280;24180;42.676;23.320;2023-04-27T10:30:35;94591.59;;;16.31;40.31
38400;BME280;24180;42.676;23.320;2023-04-27T10:33:06;94569.97;;;16.23;40.31
38400;BME280;24180;42.676;23.320;2023-04-27T10:38:06;94587.84;;;14.31;42.48
38400;BME280;24180;42.676;23.320;2023-04-27T10:40:33;94570.25;;;14.33;42.98
38400;BME280;24180;42.676;23.320;2023-04-27T10:43:16;94596.47;;;15.90;40.45
38400;BME280;24180;42.676;23.320;2023-04-27T10:45:43;94558.28;;;14.77;41.83
38400;BME280;24180;42.676;23.320;2023-04-27T10:48:11;94602.66;;;13.91;42.80
38400;BME280;24180;42.676;23.320;2023-04-27T10:50:37;94603.34;;;14.63;41.85
38400;BME280;24180;42.676;23.320;2023-04-27T10:53:05;94596.22;;;17.22;37.71
38400;BME280;24180;42.676;23.320;2023-04-27T10:55:31;94583.13;;;20.45;33.92
38400;BME280;24180;42.676;23.320;2023-04-27T10:57:57;94575.72;;;19.31;33.64
38400;BME280;24180;42.676;23.320;2023-04-27T11:00:28;94593.84;;;16.05;36.57
38400;BME280;24180;42.676;23.320;2023-04-27T11:02:55;94582.19;;;15.12;38.82
38400;BME280;24180;42.676;23.320;2023-04-27T11:05:26;94588.81;;;15.14;39.45
38400;BME280;24180;42.676;23.320;2023-04-27T11:08:06;94564.03;;;14.95;39.27
38400;BME280;24180;42.676;23.320;2023-04-27T11:10:32;94565.84;;;15.55;37.83
38400;BME280;24180;42.676;23.320;2023-04-27T11:12:58;94585.81;;;15.77;37.71
38400;BME280;24180;42.676;23.320;2023-04-27T11:15:23;94566.16;;;15.15;40.25
38400;BME280;24180;42.676;23.320;2023-04-27T11:17:48;94594.66;;;17.28;37.27
38400;BME280;24180;42.676;23.320;2023-04-27T11:20:23;94578.25;;;17.62;36.09
38400;BME280;24180;42.676;23.320;2023-04-27T11:22:49;94562.44;;;15.99;37.99
38400;BME280;24180;42.676;23.320;2023-04-27T11:25:15;94600.44;;;15.86;39.74
38400;BME280;24180;42.676;23.320;2023-04-27T11:27:41;94596.44;;;15.61;39.58
38400;BME280;24180;42.676;23.320;2023-04-27T11:30:18;94610.50;;;15.60;39.64
38400;BME280;24180;42.676;23.320;2023-04-27T11:32:44;94617.81;;;16.23;37.90
38400;BME280;24180;42.676;23.320;2023-04-27T11:35:10;94592.59;;;15.12;38.98
38400;BME280;24180;42.676;23.320;2023-04-27T11:37:35;94614.75;;;14.62;39.99
38400;BME280;24180;42.676;23.320;2023-04-27T11:40:01;94579.97;;;15.23;40.03
38400;BME280;24180;42.676;23.320;2023-04-27T11:42:27;94585.53;;;15.20;40.87
38400;BME280;24180;42.676;23.320;2023-04-27T11:45:04;94576.66;;;15.07;40.56
38400;BME280;24180;42.676;23.320;2023-04-27T11:47:33;94605.69;;;14.50;41.33
38400;BME280;24180;42.676;23.320;2023-04-27T11:50:04;94580.69;;;13.86;42.44
38400;BME280;24180;42.676;23.320;2023-04-27T11:52:36;94589.00;;;13.81;42.50
38400;BME280;24180;42.676;23.320;2023-04-27T11:55:02;94614.38;;;13.87;42.49
38400;BME280;24180;42.676;23.320;2023-04-27T11:57:32;94585.53;;;13.26;42.78
38400;BME280;24180;42.676;23.320;2023-04-27T12:00:00;94609.59;;;13.28;43.52
38400;BME280;24180;42.676;23.320;2023-04-27T12:02:30;94595.56;;;12.96;44.16
38400;BME280;24180;42.676;23.320;2023-04-27T12:04:57;94613.28;;;13.09;44.14
38400;BME280;24180;42.676;23.320;2023-04-27T12:07:23;94610.19;;;12.89;44.76
38400;BME280;24180;42.676;23.320;2023-04-27T12:09:48;94614.38;;;12.66;45.09
38400;BME280;24180;42.676;23.320;2023-04-27T12:12:14;94611.09;;;12.56;45.60
38400;BME280;24180;42.676;23.320;2023-04-27T12:14:43;94622.34;;;12.73;45.52
38400;BME280;24180;42.676;23.320;2023-04-27T12:17:08;94597.09;;;13.15;45.41
38400;BME280;24180;42.676;23.320;2023-04-27T12:19:34;94618.03;;;13.38;44.79
38400;BME280;24180;42.676;23.320;2023-04-27T12:22:01;94618.03;;;13.13;43.97
38400;BME280;24180;42.676;23.320;2023-04-27T12:24:27;94634.28;;;13.48;44.14
38400;BME280;24180;42.676;23.320;2023-04-27T12:26:52;94622.41;;;13.53;43.71
38400;BME280;24180;42.676;23.320;2023-04-27T12:29:18;94593.66;;;13.23;43.46
38400;BME280;24180;42.676;23.320;2023-04-27T12:31:43;94584.38;;;12.72;44.32
38400;BME280;24180;42.676;23.320;2023-04-27T12:34:09;94626.13;;;13.02;45.45
38400;BME280;24180;42.676;23.320;2023-04-27T12:36:34;94622.06;;;12.92;45.36
38400;BME280;24180;42.676;23.320;2023-04-27T12:39:14;94629.34;;;12.96;44.86
38400;BME280;24180;42.676;23.320;2023-04-27T12:41:42;94631.38;;;13.10;44.85
38400;BME280;24180;42.676;23.320;2023-04-27T12:44:26;94601.91;;;12.86;45.01
38400;BME280;24180;42.676;23.320;2023-04-27T12:46:51;94619.97;;;13.03;45.16
38400;BME280;24180;42.676;23.320;2023-04-27T12:49:17;94634.75;;;13.03;45.33
38400;BME280;24180;42.676;23.320;2023-04-27T12:51:42;94605.66;;;12.83;45.68
38400;BME280;24180;42.676;23.320;2023-04-27T12:54:09;94627.13;;;13.18;45.76
38400;BME280;24180;42.676;23.320;2023-04-27T12:56:35;94599.84;;;13.13;44.90
38400;BME280;24180;42.676;23.320;2023-04-27T12:59:00;94574.00;;;13.20;45.11
38400;BME280;24180;42.676;23.320;2023-04-27T13:01:26;94607.97;;;13.43;44.75